Time;durP1;ratioP1;P1;durP2;ratioP2;P2;SDS_P1;SDS_P2;PMS_P1;PMS_P2;Temp;Humidity;BMP_temperature;BMP_pressure;BME280_temperature;BME280_humidity;BME280_pressure;Samples;Min_cycle;Max_cycle;Signal;HPM_P1;HPM_P2
2023/07/24 00:01:02;;;;;;;;;;;;;;;21.34;53.12;97387.63;5022947;28;19940;-67
2023/07/24 00:03:30;;;;;;;;;;;;;;;21.27;53.26;97428.25;5025755;28;19971;-67
2023/07/24 00:05:58;;;;;;;;;;;;;;;21.12;54.26;97441.25;5028174;28;19929;-67
2023/07/24 00:08:26;;;;;;;;;;;;;;;21.06;55.43;97467.69;5030522;28;20370;-70
2023/07/24 00:10:55;;;;;;;;;;;;;;;21.12;56.12;97499.25;5028987;28;19925;-67
2023/07/24 00:13:23;;;;;;;;;;;;;;;21.07;57.42;97511.47;5035322;28;20266;-67
2023/07/24 00:15:51;;;;;;;;;;;;;;;21.01;59.29;97498.44;5038464;28;19925;-68
2023/07/24 00:18:19;;;;;;;;;;;;;;;20.92;58.51;97463.69;5037795;28;19933;-66
2023/07/24 00:20:47;;;;;;;;;;;;;;;20.93;58.06;97459.78;5024801;28;19971;-66
2023/07/24 00:23:15;;;;;;;;;;;;;;;20.72;58.91;97443.16;5021466;28;19933;-66
2023/07/24 00:25:43;;;;;;;;;;;;;;;20.71;59.49;97455.34;5029544;28;19983;-67
2023/07/24 00:28:12;;;;;;;;;;;;;;;20.55;59.80;97471.44;5025264;28;19932;-66
2023/07/24 00:30:40;;;;;;;;;;;;;;;20.57;61.71;97491.97;5038712;28;19925;-66
2023/07/24 00:33:08;;;;;;;;;;;;;;;20.53;62.25;97493.13;5037659;28;19964;-67
2023/07/24 00:35:35;;;;;;;;;;;;;;;20.49;62.73;97514.38;5028986;28;19925;-67
2023/07/24 00:38:03;;;;;;;;;;;;;;;20.40;61.77;97529.31;5030624;28;20460;-69
2023/07/24 00:40:31;;;;;;;;;;;;;;;20.39;59.78;97535.97;5038241;28;19924;-66
2023/07/24 00:42:59;;;;;;;;;;;;;;;20.28;60.54;97491.00;5031319;28;19929;-67
2023/07/24 00:45:29;;;;;;;;;;;;;;;20.37;61.16;97499.72;5028694;28;19932;-73
2023/07/24 00:47:57;;;;;;;;;;;;;;;20.26;61.18;97509.13;5028009;28;19943;-68
2023/07/24 00:50:25;;;;;;;;;;;;;;;20.10;63.20;97476.31;5033155;28;19929;-67
2023/07/24 00:52:53;;;;;;;;;;;;;;;20.01;61.32;97445.53;5018320;28;19929;-68
2023/07/24 00:55:21;;;;;;;;;;;;;;;19.98;64.06;97424.25;5027509;28;19929;-67
2023/07/24 00:57:49;;;;;;;;;;;;;;;19.91;62.34;97421.44;5042160;28;20382;-67
2023/07/24 01:00:16;;;;;;;;;;;;;;;20.05;64.96;97413.25;5026385;28;19976;-67
2023/07/24 01:02:46;;;;;;;;;;;;;;;19.86;66.40;97415.09;5027202;28;19929;-66
2023/07/24 01:05:14;;;;;;;;;;;;;;;19.82;65.90;97416.28;5029139;28;19925;-66
2023/07/24 01:07:42;;;;;;;;;;;;;;;19.80;66.54;97410.34;5031111;28;19932;-71
2023/07/24 01:10:10;;;;;;;;;;;;;;;19.69;67.36;97379.16;5018441;28;20693;-71
2023/07/24 01:12:40;;;;;;;;;;;;;;;19.65;67.38;97354.34;5030414;28;20019;-67
2023/07/24 01:15:14;;;;;;;;;;;;;;;19.57;67.18;97336.16;5028224;28;19972;-69
2023/07/24 01:17:42;;;;;;;;;;;;;;;19.53;66.97;97314.09;5031658;28;19925;-67
2023/07/24 01:20:12;;;;;;;;;;;;;;;19.48;67.41;97288.88;5029793;28;19925;-72
2023/07/24 01:22:40;;;;;;;;;;;;;;;19.40;69.05;97320.31;5031746;28;19956;-72
2023/07/24 01:25:11;;;;;;;;;;;;;;;19.57;68.46;97347.19;5024601;28;19933;-67
2023/07/24 01:27:42;;;;;;;;;;;;;;;19.51;68.69;97368.00;5027574;28;19925;-66
2023/07/24 01:30:11;;;;;;;;;;;;;;;19.45;68.77;97377.81;5041334;28;19925;-68
2023/07/24 01:32:38;;;;;;;;;;;;;;;19.50;68.60;97358.16;5019462;28;19939;-66
2023/07/24 01:35:08;;;;;;;;;;;;;;;19.49;69.38;97362.06;5033894;28;19925;-67
2023/07/24 01:37:39;;;;;;;;;;;;;;;19.46;69.27;97346.31;5029010;28;19929;-68
2023/07/24 01:40:07;;;;;;;;;;;;;;;19.38;68.53;97315.16;5028726;28;20117;-67
2023/07/24 01:42:35;;;;;;;;;;;;;;;19.38;67.36;97249.06;5027322;28;19948;-66
2023/07/24 01:45:05;;;;;;;;;;;;;;;19.30;67.60;97195.13;5029865;28;19975;-75
2023/07/24 01:47:33;;;;;;;;;;;;;;;19.25;67.80;97188.03;5030792;28;19929;-66
2023/07/24 01:50:02;;;;;;;;;;;;;;;19.19;68.26;97219.84;5028940;28;19961;-68
2023/07/24 01:52:30;;;;;;;;;;;;;;;19.16;70.51;97256.41;5043242;28;19935;-68
2023/07/24 01:54:58;;;;;;;;;;;;;;;19.16;69.63;97270.19;5032881;28;19925;-69
2023/07/24 01:57:26;;;;;;;;;;;;;;;19.22;69.96;97274.16;5025762;28;20011;-65
2023/07/24 01:59:53;;;;;;;;;;;;;;;19.03;69.04;97263.41;5023931;28;19929;-66
2023/07/24 02:02:46;;;;;;;;;;;;;;;19.03;70.45;97257.91;5029655;28;20464;-66
2023/07/24 02:05:16;;;;;;;;;;;;;;;19.03;70.34;97255.94;5028390;28;19925;-66
2023/07/24 02:07:44;;;;;;;;;;;;;;;19.11;70.50;97256.78;5031423;28;20352;-69
2023/07/24 02:10:12;;;;;;;;;;;;;;;19.20;70.50;97262.72;5019555;28;19926;-72
2023/07/24 02:12:42;;;;;;;;;;;;;;;19.23;70.22;97250.97;5029378;28;19975;-67
2023/07/24 02:15:10;;;;;;;;;;;;;;;19.28;70.13;97247.84;5034369;28;19931;-66
2023/07/24 02:17:42;;;;;;;;;;;;;;;19.29;70.50;97259.66;5024553;28;19929;-66
2023/07/24 02:20:11;;;;;;;;;;;;;;;19.30;70.12;97255.72;5032522;28;19999;-66
2023/07/24 02:22:40;;;;;;;;;;;;;;;19.39;70.37;97253.41;5030953;28;19929;-66
2023/07/24 02:25:09;;;;;;;;;;;;;;;19.40;71.42;97254.22;5030205;28;19925;-67
2023/07/24 02:27:36;;;;;;;;;;;;;;;19.34;71.26;97240.78;5032811;28;19940;-66
2023/07/24 02:30:05;;;;;;;;;;;;;;;19.32;72.05;97243.13;5030178;28;19924;-67
2023/07/24 02:32:35;;;;;;;;;;;;;;;19.35;71.68;97242.38;5028544;28;19933;-67
2023/07/24 02:35:03;;;;;;;;;;;;;;;19.38;72.06;97247.09;5032318;28;19960;-76
2023/07/24 02:37:31;;;;;;;;;;;;;;;19.39;71.61;97247.91;5031571;28;19929;-67
2023/07/24 02:40:00;;;;;;;;;;;;;;;19.39;72.22;97258.94;5030941;28;19933;-67
2023/07/24 02:42:28;;;;;;;;;;;;;;;19.35;71.92;97252.59;5027143;28;19926;-67
2023/07/24 02:44:55;;;;;;;;;;;;;;;19.24;72.47;97258.06;5028192;28;19929;-66
2023/07/24 02:47:23;;;;;;;;;;;;;;;19.37;71.72;97250.25;5023583;28;19929;-67
2023/07/24 02:49:51;;;;;;;;;;;;;;;19.34;72.30;97251.03;5023579;28;19975;-67
2023/07/24 02:52:19;;;;;;;;;;;;;;;19.41;71.82;97250.28;5035547;28;19930;-68
2023/07/24 02:54:49;;;;;;;;;;;;;;;19.42;72.10;97252.63;5028200;28;19971;-66
2023/07/24 02:57:19;;;;;;;;;;;;;;;19.37;71.72;97251.03;5022200;28;19936;-65
2023/07/24 02:59:46;;;;;;;;;;;;;;;19.40;72.13;97248.69;5021878;28;20284;-68
2023/07/24 03:02:14;;;;;;;;;;;;;;;19.33;72.67;97250.25;5023094;28;19925;-67
2023/07/24 03:04:42;;;;;;;;;;;;;;;19.42;72.25;97252.63;5020135;28;19957;-67
2023/07/24 03:07:10;;;;;;;;;;;;;;;19.46;71.87;97253.44;5035783;28;19925;-68
2023/07/24 03:09:38;;;;;;;;;;;;;;;19.45;72.16;97248.34;5030748;28;19932;-68
2023/07/24 03:12:06;;;;;;;;;;;;;;;19.47;71.83;97251.47;5034270;28;19932;-65
2023/07/24 03:14:35;;;;;;;;;;;;;;;19.43;71.58;97247.91;5042672;28;20289;-67
2023/07/24 03:17:03;;;;;;;;;;;;;;;19.45;71.74;97235.34;5039172;28;19964;-66
2023/07/24 03:19:31;;;;;;;;;;;;;;;19.48;71.81;97248.34;5029266;28;19929;-68
2023/07/24 03:21:59;;;;;;;;;;;;;;;19.48;72.45;97247.53;5023549;28;19979;-65
2023/07/24 03:24:27;;;;;;;;;;;;;;;19.45;72.36;97231.81;5026085;28;20020;-67
2023/07/24 03:26:55;;;;;;;;;;;;;;;19.41;71.62;97223.50;5039141;28;19925;-67
2023/07/24 03:29:24;;;;;;;;;;;;;;;19.32;71.91;97231.31;5022582;28;19932;-70
2023/07/24 03:31:55;;;;;;;;;;;;;;;19.29;72.52;97224.63;5025067;28;19976;-68
2023/07/24 03:34:23;;;;;;;;;;;;;;;19.32;72.34;97218.34;5029033;28;19929;-70
2023/07/24 03:36:51;;;;;;;;;;;;;;;19.34;72.15;97212.47;5029003;28;19925;-76
2023/07/24 03:39:19;;;;;;;;;;;;;;;19.27;72.06;97218.72;5022201;28;19933;-70
2023/07/24 03:41:47;;;;;;;;;;;;;;;19.26;72.28;97227.38;5024666;28;19959;-66
2023/07/24 03:44:15;;;;;;;;;;;;;;;19.21;72.33;97223.00;5022593;28;19932;-68
2023/07/24 03:46:42;;;;;;;;;;;;;;;19.15;72.41;97224.53;5025405;28;19940;-68
2023/07/24 03:49:12;;;;;;;;;;;;;;;19.04;72.65;97220.94;5025966;28;19978;-68
2023/07/24 03:51:39;;;;;;;;;;;;;;;18.99;72.44;97210.28;5029618;28;19947;-66
2023/07/24 03:54:10;;;;;;;;;;;;;;;18.99;72.88;97199.28;5024634;28;20457;-65
2023/07/24 03:56:37;;;;;;;;;;;;;;;18.98;72.80;97201.25;5021027;28;19925;-65
2023/07/24 03:59:06;;;;;;;;;;;;;;;18.98;72.84;97184.72;5023833;28;19932;-66
2023/07/24 04:01:34;;;;;;;;;;;;;;;18.93;73.41;97181.56;5025386;28;19978;-74
2023/07/24 04:04:02;;;;;;;;;;;;;;;18.92;73.27;97179.97;5026410;28;19956;-67
2023/07/24 04:06:34;;;;;;;;;;;;;;;18.92;72.67;97171.72;5022821;28;20297;-70
2023/07/24 04:09:02;;;;;;;;;;;;;;;18.92;73.03;97177.22;5024063;28;19933;-66
2023/07/24 04:11:30;;;;;;;;;;;;;;;18.96;73.34;97159.56;5023102;28;19925;-67
2023/07/24 04:14:06;;;;;;;;;;;;;;;18.96;72.94;97165.06;5023809;28;19926;-67
2023/07/24 04:16:34;;;;;;;;;;;;;;;19.00;73.13;97163.09;5022720;28;19932;-66
2023/07/24 04:19:04;;;;;;;;;;;;;;;19.04;73.28;97165.88;5025430;28;19972;-66
2023/07/24 04:21:32;;;;;;;;;;;;;;;19.04;73.31;97172.19;5026739;28;19929;-67
2023/07/24 04:24:01;;;;;;;;;;;;;;;19.04;73.01;97171.38;5020615;28;19925;-67
2023/07/24 04:26:29;;;;;;;;;;;;;;;18.91;72.70;97150.84;5025821;28;19932;-66
2023/07/24 04:28:57;;;;;;;;;;;;;;;18.94;72.61;97145.38;5020530;28;19933;-67
2023/07/24 04:31:25;;;;;;;;;;;;;;;18.87;72.65;97141.81;5027295;28;20572;-66
2023/07/24 04:33:53;;;;;;;;;;;;;;;18.90;72.54;97149.28;5024598;28;20018;-67
2023/07/24 04:36:21;;;;;;;;;;;;;;;18.86;73.00;97143.00;5027030;28;20313;-66
2023/07/24 04:38:49;;;;;;;;;;;;;;;18.86;73.02;97132.75;5019383;28;20363;-66
2023/07/24 04:41:18;;;;;;;;;;;;;;;18.91;72.63;97143.41;5026259;28;20012;-65
2023/07/24 04:43:46;;;;;;;;;;;;;;;18.84;72.80;97157.91;5018768;28;19933;-72
2023/07/24 04:46:14;;;;;;;;;;;;;;;18.80;73.52;97151.59;5034928;28;20086;-67
2023/07/24 04:48:42;;;;;;;;;;;;;;;18.82;73.57;97140.19;5038855;28;19926;-66
2023/07/24 04:51:09;;;;;;;;;;;;;;;18.76;73.77;97137.03;5022869;28;19931;-65
2023/07/24 04:53:37;;;;;;;;;;;;;;;18.82;74.40;97132.72;5025942;28;19932;-66
2023/07/24 04:56:05;;;;;;;;;;;;;;;18.82;74.38;97143.75;5021329;28;19925;-68
2023/07/24 04:58:34;;;;;;;;;;;;;;;18.81;74.75;97142.16;5024747;28;19929;-68
2023/07/24 05:01:05;;;;;;;;;;;;;;;18.90;73.92;97150.06;5021801;28;19930;-67
2023/07/24 05:03:33;;;;;;;;;;;;;;;18.92;74.15;97153.25;5018650;28;20344;-65
2023/07/24 05:06:01;;;;;;;;;;;;;;;19.01;73.41;97155.63;5018944;28;20435;-66
2023/07/24 05:08:29;;;;;;;;;;;;;;;19.03;72.82;97153.31;5027304;28;19926;-65
2023/07/24 05:10:57;;;;;;;;;;;;;;;19.09;73.14;97166.31;5023450;28;19940;-66
2023/07/24 05:13:27;;;;;;;;;;;;;;;18.98;73.14;97181.97;5021149;28;19969;-65
2023/07/24 05:15:56;;;;;;;;;;;;;;;19.01;72.56;97216.97;5030641;28;19936;-69
2023/07/24 05:18:24;;;;;;;;;;;;;;;18.93;72.58;97225.59;5025974;28;19929;-67
2023/07/24 05:20:52;;;;;;;;;;;;;;;18.98;72.06;97195.75;5023359;28;19925;-66
2023/07/24 05:23:20;;;;;;;;;;;;;;;18.97;71.76;97179.63;5027499;28;19933;-70
2023/07/24 05:25:47;;;;;;;;;;;;;;;19.04;72.68;97172.19;5025281;28;19935;-67
2023/07/24 05:28:15;;;;;;;;;;;;;;;19.06;72.00;97169.03;5023845;28;19925;-67
2023/07/24 05:30:43;;;;;;;;;;;;;;;19.01;71.48;97166.63;5024167;28;20034;-68
2023/07/24 05:33:13;;;;;;;;;;;;;;;19.01;70.97;97172.94;5026454;28;19926;-69
2023/07/24 05:35:40;;;;;;;;;;;;;;;19.03;70.59;97176.09;5023453;28;20375;-66
2023/07/24 05:38:08;;;;;;;;;;;;;;;18.98;71.27;97168.22;5026017;28;19932;-67
2023/07/24 05:40:36;;;;;;;;;;;;;;;18.93;72.32;97154.81;5034183;28;19925;-67
2023/07/24 05:43:04;;;;;;;;;;;;;;;19.01;72.68;97161.91;5033397;28;20306;-68
2023/07/24 05:45:32;;;;;;;;;;;;;;;19.02;73.11;97159.97;5035741;28;19929;-66
2023/07/24 05:48:00;;;;;;;;;;;;;;;18.99;72.14;97166.25;5022526;28;19925;-67
2023/07/24 05:50:29;;;;;;;;;;;;;;;19.06;71.97;97158.81;5025401;28;19936;-67
2023/07/24 05:53:00;;;;;;;;;;;;;;;19.02;72.01;97163.53;5035864;28;19990;-66
2023/07/24 05:55:28;;;;;;;;;;;;;;;19.07;72.54;97154.13;5023100;28;19997;-66
2023/07/24 05:57:56;;;;;;;;;;;;;;;19.14;72.04;97154.13;5024075;28;19932;-66
2023/07/24 06:00:24;;;;;;;;;;;;;;;19.15;72.74;97158.47;5026729;28;19929;-66
2023/07/24 06:02:52;;;;;;;;;;;;;;;19.22;73.01;97155.75;5026836;28;19948;-67
2023/07/24 06:05:24;;;;;;;;;;;;;;;19.36;72.37;97153.06;5022495;28;19979;-66
2023/07/24 06:07:53;;;;;;;;;;;;;;;19.46;72.29;97153.50;5020395;28;19925;-66
2023/07/24 06:10:21;;;;;;;;;;;;;;;19.49;71.73;97160.97;5031212;28;19925;-65
2023/07/24 06:12:48;;;;;;;;;;;;;;;19.55;70.53;97170.47;5022290;28;19971;-68
2023/07/24 06:15:19;;;;;;;;;;;;;;;19.50;71.22;97174.38;5026739;28;20395;-68
2023/07/24 06:17:46;;;;;;;;;;;;;;;19.55;71.18;97173.22;5028803;28;19925;-67
2023/07/24 06:20:14;;;;;;;;;;;;;;;19.58;70.16;97175.97;5027006;28;19936;-67
2023/07/24 06:22:42;;;;;;;;;;;;;;;19.57;69.95;97179.09;5023991;28;19925;-68
2023/07/24 06:25:11;;;;;;;;;;;;;;;19.57;70.92;97176.34;5027151;28;20019;-70
2023/07/24 06:27:39;;;;;;;;;;;;;;;19.57;70.06;97176.34;5047188;28;19980;-67
2023/07/24 06:30:08;;;;;;;;;;;;;;;19.62;69.86;97171.28;5023887;28;19943;-67
2023/07/24 06:32:43;;;;;;;;;;;;;;;19.63;70.02;97164.59;5024928;28;20025;-70
2023/07/24 06:35:11;;;;;;;;;;;;;;;19.71;69.89;97165.41;5031477;28;19931;-66
2023/07/24 06:37:39;;;;;;;;;;;;;;;19.78;69.35;97161.88;5027251;28;19951;-66
2023/07/24 06:40:07;;;;;;;;;;;;;;;19.72;68.50;97161.47;5026175;28;19955;-68
2023/07/24 06:42:37;;;;;;;;;;;;;;;19.76;68.17;97155.97;5030595;28;19991;-67
2023/07/24 06:45:05;;;;;;;;;;;;;;;19.76;69.34;97155.97;5028543;28;19933;-68
2023/07/24 06:47:35;;;;;;;;;;;;;;;19.85;68.92;97146.16;5026218;28;20337;-68
2023/07/24 06:50:06;;;;;;;;;;;;;;;19.87;69.45;97138.28;5028806;28;19940;-66
2023/07/24 06:52:37;;;;;;;;;;;;;;;19.95;69.60;97124.50;5026610;28;20302;-67
2023/07/24 06:55:06;;;;;;;;;;;;;;;20.03;69.25;97120.59;5036313;28;19933;-67
2023/07/24 06:57:34;;;;;;;;;;;;;;;20.05;69.22;97126.50;5028135;28;19925;-66
2023/07/24 07:00:03;;;;;;;;;;;;;;;20.09;69.17;97127.28;5024071;28;19929;-70
2023/07/24 07:02:31;;;;;;;;;;;;;;;20.07;69.47;97122.16;5015874;28;19925;-68
2023/07/24 07:04:59;;;;;;;;;;;;;;;20.10;70.03;97106.81;5022806;28;19929;-67
2023/07/24 07:07:28;;;;;;;;;;;;;;;20.10;70.08;97104.81;5025992;28;19995;-68
2023/07/24 07:09:56;;;;;;;;;;;;;;;20.11;69.17;97100.09;5024840;28;20374;-67
2023/07/24 07:12:24;;;;;;;;;;;;;;;20.13;68.83;97106.00;5040027;28;19925;-67
2023/07/24 07:14:51;;;;;;;;;;;;;;;20.28;68.83;97120.56;5028240;28;19932;-67
2023/07/24 07:17:21;;;;;;;;;;;;;;;20.47;68.60;97124.94;5029639;28;20330;-67
2023/07/24 07:19:49;;;;;;;;;;;;;;;20.62;68.05;97127.31;5029212;28;20358;-66
2023/07/24 07:22:17;;;;;;;;;;;;;;;20.57;68.33;97121.41;5030284;28;19983;-66
2023/07/24 07:24:46;;;;;;;;;;;;;;;20.59;68.48;97113.50;5030345;28;19925;-67
2023/07/24 07:27:17;;;;;;;;;;;;;;;20.65;68.72;97111.91;5030809;28;19925;-67
2023/07/24 07:29:46;;;;;;;;;;;;;;;20.76;68.10;97107.16;5024514;28;19940;-67
2023/07/24 07:32:14;;;;;;;;;;;;;;;20.76;65.99;97111.88;5018522;28;19932;-69
2023/07/24 07:34:43;;;;;;;;;;;;;;;20.80;65.97;97118.97;5024081;28;19925;-67
2023/07/24 07:37:11;;;;;;;;;;;;;;;20.87;66.69;97118.94;5026660;28;19964;-70
2023/07/24 07:39:39;;;;;;;;;;;;;;;20.92;65.09;97115.00;5026712;28;19929;-67
2023/07/24 07:42:07;;;;;;;;;;;;;;;21.00;65.61;97119.31;5028602;28;19925;-67
2023/07/24 07:44:44;;;;;;;;;;;;;;;21.05;64.90;97112.63;5027828;28;20263;-69
2023/07/24 07:47:12;;;;;;;;;;;;;;;21.06;64.02;97112.22;5029643;28;19932;-70
2023/07/24 07:49:41;;;;;;;;;;;;;;;21.15;63.94;97120.06;5027230;28;19929;-66
2023/07/24 07:52:10;;;;;;;;;;;;;;;21.16;63.36;97118.88;5027187;28;20298;-70
2023/07/24 07:54:38;;;;;;;;;;;;;;;21.24;62.27;97120.41;5020517;28;20310;-72
2023/07/24 07:57:06;;;;;;;;;;;;;;;21.25;63.13;97118.44;5021139;28;20560;-70
2023/07/24 07:59:35;;;;;;;;;;;;;;;21.27;63.57;97125.16;5018493;28;19925;-68
2023/07/24 08:02:03;;;;;;;;;;;;;;;21.29;63.05;97111.72;5026313;28;20398;-67
2023/07/24 08:04:31;;;;;;;;;;;;;;;21.35;63.88;97117.63;5028418;28;19925;-68
2023/07/24 08:06:59;;;;;;;;;;;;;;;21.31;64.07;97128.72;5020326;28;19936;-68
2023/07/24 08:09:28;;;;;;;;;;;;;;;21.29;62.89;97133.03;5022849;28;19935;-68
2023/07/24 08:11:56;;;;;;;;;;;;;;;21.33;63.73;97126.34;5030462;28;20428;-71
2023/07/24 08:14:23;;;;;;;;;;;;;;;21.32;64.01;97121.22;5023995;28;19925;-67
2023/07/24 08:16:52;;;;;;;;;;;;;;;21.32;64.07;97115.69;5023162;28;19960;-68
2023/07/24 08:19:20;;;;;;;;;;;;;;;21.34;64.42;97113.31;5023956;28;19925;-68
2023/07/24 08:21:48;;;;;;;;;;;;;;;21.32;64.20;97110.97;5029460;28;20021;-69
2023/07/24 08:24:16;;;;;;;;;;;;;;;21.39;63.89;97113.69;5018605;28;20563;-68
2023/07/24 08:26:46;;;;;;;;;;;;;;;21.42;63.95;97109.34;5020933;28;19960;-68
2023/07/24 08:29:13;;;;;;;;;;;;;;;21.40;64.64;97120.00;5023110;28;19961;-67
2023/07/24 08:31:41;;;;;;;;;;;;;;;21.42;65.12;97125.91;5016139;28;19925;-67
2023/07/24 08:34:09;;;;;;;;;;;;;;;21.47;64.87;97133.00;5025378;28;19932;-66
2023/07/24 08:36:39;;;;;;;;;;;;;;;21.48;64.06;97123.53;5019644;28;21371;-67
2023/07/24 08:39:08;;;;;;;;;;;;;;;21.52;64.60;97121.50;5024867;28;20016;-68
2023/07/24 08:41:38;;;;;;;;;;;;;;;21.59;64.64;97118.72;5024417;28;19971;-66
2023/07/24 08:44:10;;;;;;;;;;;;;;;21.60;62.75;97109.22;5027704;28;20332;-66
2023/07/24 08:46:45;;;;;;;;;;;;;;;21.64;62.15;97094.22;5021260;28;19936;-65
2023/07/24 08:49:16;;;;;;;;;;;;;;;21.67;61.45;97096.16;5024768;28;19929;-65
2023/07/24 08:51:45;;;;;;;;;;;;;;;21.70;61.65;97089.03;5014821;28;19941;-66
2023/07/24 08:54:15;;;;;;;;;;;;;;;21.77;62.74;97097.28;5025721;28;20003;-65
2023/07/24 08:56:47;;;;;;;;;;;;;;;21.79;63.68;97092.16;5028435;28;19926;-66
2023/07/24 08:59:19;;;;;;;;;;;;;;;21.86;64.16;97094.06;5024455;28;20058;-68
2023/07/24 09:01:53;;;;;;;;;;;;;;;21.91;63.17;97086.13;5023565;28;20012;-69
2023/07/24 09:04:27;;;;;;;;;;;;;;;21.90;62.92;97092.84;5034899;28;20262;-66
2023/07/24 09:07:00;;;;;;;;;;;;;;;21.94;62.31;97090.03;5026989;28;19929;-69
2023/07/24 09:09:32;;;;;;;;;;;;;;;21.97;62.53;97078.97;5026834;28;20290;-66
2023/07/24 09:12:00;;;;;;;;;;;;;;;22.08;60.16;97076.13;5020384;28;20342;-66
2023/07/24 09:14:34;;;;;;;;;;;;;;;22.13;59.52;97063.88;5022450;28;19979;-70
2023/07/24 09:17:02;;;;;;;;;;;;;;;22.14;59.78;97076.50;5027592;28;19960;-70
2023/07/24 09:19:31;;;;;;;;;;;;;;;22.16;59.17;97069.38;5029204;28;19932;-67
2023/07/24 09:22:08;;;;;;;;;;;;;;;22.20;59.70;97074.84;5032623;28;19933;-69
2023/07/24 09:24:36;;;;;;;;;;;;;;;22.23;58.67;97074.06;5028397;28;19965;-66
2023/07/24 09:27:06;;;;;;;;;;;;;;;22.29;58.26;97075.19;5028739;28;19936;-66
2023/07/24 09:29:35;;;;;;;;;;;;;;;22.36;59.06;97072.34;5030000;28;19925;-69
2023/07/24 09:32:03;;;;;;;;;;;;;;;22.40;59.01;97078.63;5027944;28;19925;-66
2023/07/24 09:34:32;;;;;;;;;;;;;;;22.45;57.95;97075.44;5026525;28;19925;-66
2023/07/24 09:37:00;;;;;;;;;;;;;;;22.51;57.29;97072.22;5027462;28;19974;-66
2023/07/24 09:39:28;;;;;;;;;;;;;;;22.57;56.49;97070.56;5030740;28;19965;-69
2023/07/24 09:42:03;;;;;;;;;;;;;;;22.54;57.18;97057.56;5033782;28;20403;-70
2023/07/24 09:44:31;;;;;;;;;;;;;;;22.61;56.59;97054.72;5023801;28;19932;-66
2023/07/24 09:47:01;;;;;;;;;;;;;;;22.66;56.35;97057.81;5026432;28;19936;-65
2023/07/24 09:49:49;;;;;;;;;;;;;;;22.76;56.43;97069.97;5044608;28;19928;-65
2023/07/24 09:52:17;;;;;;;;;;;;;;;22.82;56.39;97087.72;5027788;28;19936;-66
2023/07/24 09:54:50;;;;;;;;;;;;;;;22.80;56.83;97087.34;5020780;28;19926;-66
2023/07/24 09:57:18;;;;;;;;;;;;;;;22.86;56.17;97088.47;5029726;28;19998;-65
2023/07/24 09:59:48;;;;;;;;;;;;;;;22.91;56.44;97078.97;5023711;28;19929;-65
2023/07/24 10:02:18;;;;;;;;;;;;;;;22.88;55.69;97075.00;5023201;28;20405;-66
2023/07/24 10:04:46;;;;;;;;;;;;;;;22.88;56.58;97066.72;5030556;28;19986;-64
2023/07/24 10:07:14;;;;;;;;;;;;;;;22.88;55.44;97052.84;5025805;28;19925;-64
2023/07/24 10:09:42;;;;;;;;;;;;;;;22.91;56.42;97046.50;5030769;28;19932;-64
2023/07/24 10:12:10;;;;;;;;;;;;;;;22.87;55.50;97039.41;5031816;28;19929;-64
2023/07/24 10:14:37;;;;;;;;;;;;;;;22.84;55.86;97046.53;5026377;28;22028;-64
2023/07/24 10:17:05;;;;;;;;;;;;;;;22.82;56.22;97048.16;5025504;28;19925;-64
2023/07/24 10:19:38;;;;;;;;;;;;;;;22.79;56.17;97049.75;5027126;28;19925;-64
2023/07/24 10:22:06;;;;;;;;;;;;;;;22.80;55.75;97045.81;5028375;28;19940;-64
2023/07/24 10:24:34;;;;;;;;;;;;;;;22.82;55.97;97054.50;5023635;28;19998;-65
2023/07/24 10:27:09;;;;;;;;;;;;;;;22.79;55.98;97062.81;5029077;28;19968;-65
2023/07/24 10:29:37;;;;;;;;;;;;;;;22.77;56.12;97068.78;5030415;28;19971;-65
2023/07/24 10:32:05;;;;;;;;;;;;;;;22.72;55.82;97067.25;5024305;28;20555;-65
2023/07/24 10:34:40;;;;;;;;;;;;;;;22.67;56.38;97064.94;5023870;28;19925;-65
2023/07/24 10:37:09;;;;;;;;;;;;;;;22.66;56.21;97068.91;5024231;28;19936;-65
2023/07/24 10:39:39;;;;;;;;;;;;;;;22.65;56.56;97078.41;5016803;28;20317;-67
2023/07/24 10:42:08;;;;;;;;;;;;;;;22.66;56.00;97079.19;5027261;28;19925;-66
2023/07/24 10:44:35;;;;;;;;;;;;;;;22.66;56.67;97088.28;5030808;28;19936;-65
2023/07/24 10:47:03;;;;;;;;;;;;;;;22.64;56.93;97098.19;5029327;28;19925;-65
2023/07/24 10:49:31;;;;;;;;;;;;;;;22.65;57.31;97094.22;5040274;28;19980;-65
2023/07/24 10:52:00;;;;;;;;;;;;;;;22.59;58.22;97095.88;5027089;28;19929;-65
2023/07/24 10:54:32;;;;;;;;;;;;;;;22.54;59.28;97093.56;5015552;28;20034;-66
2023/07/24 10:57:00;;;;;;;;;;;;;;;22.49;59.25;97092.78;5033820;28;20008;-64
2023/07/24 10:59:39;;;;;;;;;;;;;;;22.48;61.69;97091.22;5023902;28;20298;-65
2023/07/24 11:02:07;;;;;;;;;;;;;;;22.46;62.26;97103.88;5031376;28;19959;-65
2023/07/24 11:04:36;;;;;;;;;;;;;;;22.39;61.56;97104.75;5028759;28;19932;-65
2023/07/24 11:07:05;;;;;;;;;;;;;;;22.36;62.59;97111.09;5029473;28;19929;-65
2023/07/24 11:09:37;;;;;;;;;;;;;;;22.38;63.57;97108.72;5026068;28;19925;-65
2023/07/24 11:12:12;;;;;;;;;;;;;;;22.33;63.71;97100.84;5055404;28;19931;-65
2023/07/24 11:14:47;;;;;;;;;;;;;;;22.32;64.37;97099.28;5028125;28;19964;-64
2023/07/24 11:17:15;;;;;;;;;;;;;;;22.31;65.20;97106.00;5021593;28;19933;-66
2023/07/24 11:19:42;;;;;;;;;;;;;;;22.24;65.16;97108.81;5039801;28;19955;-65
2023/07/24 11:22:11;;;;;;;;;;;;;;;22.22;65.88;97109.25;5030197;28;19994;-64
2023/07/24 11:24:43;;;;;;;;;;;;;;;22.14;65.80;97120.75;5029181;28;20370;-64
2023/07/24 11:27:13;;;;;;;;;;;;;;;22.10;66.26;97114.44;5024963;28;19925;-64
2023/07/24 11:29:41;;;;;;;;;;;;;;;22.08;66.25;97122.34;5024796;28;19925;-65
2023/07/24 11:32:09;;;;;;;;;;;;;;;22.06;66.67;97116.47;5026857;28;19929;-65
2023/07/24 11:34:39;;;;;;;;;;;;;;;22.06;65.84;97114.47;5024675;28;19928;-65
2023/07/24 11:37:07;;;;;;;;;;;;;;;22.04;66.76;97118.81;5027369;28;19925;-65
2023/07/24 11:39:36;;;;;;;;;;;;;;;22.03;66.61;97115.28;5028551;28;20006;-64
2023/07/24 11:42:04;;;;;;;;;;;;;;;22.03;66.68;97117.25;5026651;28;19933;-64
2023/07/24 11:44:33;;;;;;;;;;;;;;;22.00;66.71;97110.56;5024223;28;19925;-65
2023/07/24 11:47:01;;;;;;;;;;;;;;;21.99;66.80;97103.44;5029984;28;19956;-64
2023/07/24 11:49:31;;;;;;;;;;;;;;;22.13;66.48;97108.13;5025559;28;19932;-63
2023/07/24 11:52:03;;;;;;;;;;;;;;;22.13;66.86;97105.34;5024360;28;20279;-66
2023/07/24 11:54:36;;;;;;;;;;;;;;;22.17;66.91;97101.38;5022863;28;19925;-64
2023/07/24 11:57:04;;;;;;;;;;;;;;;22.21;66.91;97093.03;5027752;28;20547;-64
2023/07/24 11:59:37;;;;;;;;;;;;;;;22.20;65.94;97091.47;5026095;28;19929;-64
2023/07/24 12:02:10;;;;;;;;;;;;;;;22.26;65.47;97100.88;5022805;28;19932;-65
2023/07/24 12:04:38;;;;;;;;;;;;;;;22.24;65.32;97100.53;5023607;28;20424;-65
2023/07/24 12:07:08;;;;;;;;;;;;;;;22.24;63.98;97103.28;5028062;28;19925;-65
2023/07/24 12:09:37;;;;;;;;;;;;;;;22.24;62.45;97100.53;5023937;28;19960;-65
2023/07/24 12:12:06;;;;;;;;;;;;;;;22.22;61.21;97084.34;5026011;28;19925;-62
2023/07/24 12:14:34;;;;;;;;;;;;;;;22.25;59.37;97073.63;5027213;28;19957;-62
2023/07/24 12:17:02;;;;;;;;;;;;;;;22.26;59.36;97064.91;5025084;28;19983;-62
2023/07/24 12:19:30;;;;;;;;;;;;;;;22.30;58.98;97059.38;5024872;28;19968;-62
2023/07/24 12:21:58;;;;;;;;;;;;;;;22.34;59.13;97054.59;5025215;28;19933;-63
2023/07/24 12:24:26;;;;;;;;;;;;;;;22.35;58.70;97070.00;5031086;28;19979;-62
2023/07/24 12:26:56;;;;;;;;;;;;;;;22.34;57.20;97060.91;5026477;28;19932;-62
2023/07/24 12:29:23;;;;;;;;;;;;;;;22.32;57.62;97055.00;5026057;28;19956;-67
2023/07/24 12:31:51;;;;;;;;;;;;;;;22.37;57.32;97056.53;5027473;28;19925;-63
2023/07/24 12:34:19;;;;;;;;;;;;;;;22.41;59.24;97052.53;5024837;28;19935;-63
2023/07/24 12:36:47;;;;;;;;;;;;;;;22.52;56.87;97038.59;5032576;28;20481;-64
2023/07/24 12:39:15;;;;;;;;;;;;;;;22.46;58.89;97029.94;5032393;28;19929;-68
2023/07/24 12:41:43;;;;;;;;;;;;;;;22.45;56.42;97027.59;5031839;28;19925;-64
2023/07/24 12:44:12;;;;;;;;;;;;;;;22.41;56.60;97035.16;5028608;28;19933;-63
2023/07/24 12:46:40;;;;;;;;;;;;;;;22.38;56.34;97024.91;5033519;28;19995;-63
2023/07/24 12:49:08;;;;;;;;;;;;;;;22.36;56.48;97018.97;5023576;28;19925;-62
2023/07/24 12:51:38;;;;;;;;;;;;;;;22.34;56.19;97002.00;5028828;28;19952;-64
2023/07/24 12:54:06;;;;;;;;;;;;;;;22.37;56.15;97010.28;5027026;28;19924;-62
2023/07/24 12:56:45;;;;;;;;;;;;;;;22.34;55.75;97030.47;5027107;28;19933;-63